Time;durP1;ratioP1;P1;durP2;ratioP2;P2;SDS_P1;SDS_P2;PMS_P1;PMS_P2;Temp;Humidity;BMP_temperature;BMP_pressure;BME280_temperature;BME280_humidity;BME280_pressure;Samples;Min_cycle;Max_cycle;Signal;HPM_P1;HPM_P2
2022/07/16 00:03:43;;;;;;;5.50;3.95;;;;;;;22.94;48.14;92633.81;4781063;29;20038;-76
2022/07/16 00:06:08;;;;;;;7.43;4.10;;;;;;;22.93;48.88;92637.63;4772763;29;20101;-76
2022/07/16 00:08:34;;;;;;;9.18;4.00;;;;;;;22.86;49.56;92635.63;4788001;29;20031;-75
2022/07/16 00:10:59;;;;;;;8.07;4.50;;;;;;;22.79;52.46;92648.09;4802550;29;20498;-75
2022/07/16 00:13:25;;;;;;;6.35;4.60;;;;;;;22.66;52.44;92645.63;4800332;29;20036;-75
2022/07/16 00:15:50;;;;;;;8.10;4.75;;;;;;;22.53;53.77;92649.59;4785876;30;20039;-75
2022/07/16 00:21:00;;;;;;;8.20;4.43;;;;;;;22.18;54.74;92663.84;4786771;29;20112;-75
2022/07/16 00:23:25;;;;;;;8.98;4.82;;;;;;;22.12;55.69;92665.25;4769936;30;20403;-75
2022/07/16 00:25:51;;;;;;;8.05;4.55;;;;;;;22.02;55.99;92666.63;4771755;29;20503;-75
2022/07/16 00:28:16;;;;;;;7.43;4.22;;;;;;;21.97;56.18;92671.44;4787748;29;20047;-75
2022/07/16 00:30:42;;;;;;;6.90;4.70;;;;;;;21.93;56.33;92678.59;4803832;29;20031;-75
2022/07/16 00:33:07;;;;;;;6.85;4.53;;;;;;;21.88;56.72;92676.22;4802229;29;20055;-74
2022/07/16 00:35:33;;;;;;;7.35;4.28;;;;;;;21.83;56.75;92678.03;4790687;29;20043;-75
2022/07/16 00:37:59;;;;;;;6.13;4.30;;;;;;;21.78;57.31;92678.34;4757528;30;20574;-75
2022/07/16 00:40:24;;;;;;;6.80;4.30;;;;;;;21.73;57.59;92675.97;4789623;30;20061;-75
2022/07/16 00:42:50;;;;;;;8.40;4.05;;;;;;;21.68;57.97;92684.22;4790415;29;20043;-75
2022/07/16 00:45:15;;;;;;;9.60;4.40;;;;;;;21.64;58.35;92678.06;4774269;30;20506;-75
2022/07/16 00:47:41;;;;;;;7.40;4.50;;;;;;;21.61;58.74;92674.19;4789399;30;20148;-75
2022/07/16 00:50:07;;;;;;;7.28;4.57;;;;;;;21.53;60.11;92677.06;4758511;30;20414;-75
2022/07/16 00:52:36;;;;;;;7.15;4.55;;;;;;;21.51;60.08;92674.00;4789749;29;20047;-75
2022/07/16 00:55:03;;;;;;;6.20;4.35;;;;;;;21.46;59.94;92676.91;4758248;30;20078;-75
2022/07/16 00:57:29;;;;;;;7.63;4.10;;;;;;;21.39;60.23;92672.97;4783532;30;20214;-75
2022/07/16 00:59:54;;;;;;;9.25;4.18;;;;;;;21.35;59.98;92672.13;4773098;30;20038;-75
2022/07/16 01:02:20;;;;;;;10.57;4.15;;;;;;;21.31;59.88;92673.94;4773308;29;20043;-74
2022/07/16 01:04:47;;;;;;;7.95;4.68;;;;;;;21.26;59.88;92674.22;4789238;29;20047;-75
2022/07/16 01:07:14;;;;;;;7.40;4.35;;;;;;;21.20;60.01;92676.34;4794267;29;20075;-75
2022/07/16 01:09:39;;;;;;;10.98;4.32;;;;;;;21.14;60.14;92674.31;4772916;30;20466;-75
2022/07/16 01:12:06;;;;;;;5.47;3.95;;;;;;;21.13;59.81;92675.44;4789105;30;20035;-75
2022/07/16 01:14:31;;;;;;;7.07;4.22;;;;;;;21.11;60.57;92688.31;4800085;29;20512;-75
2022/07/16 01:16:57;;;;;;;6.07;4.32;;;;;;;21.09;61.05;92687.88;4798367;29;20039;-75
2022/07/16 01:19:23;;;;;;;9.30;5.15;;;;;;;21.13;65.83;92691.41;4785019;29;20046;-75
2022/07/16 01:21:49;;;;;;;8.15;4.72;;;;;;;21.10;64.57;92692.13;4790194;29;20054;-75
2022/07/16 01:24:15;;;;;;;10.20;5.18;;;;;;;21.07;64.88;92690.13;4805218;29;20039;-75
2022/07/16 01:26:41;;;;;;;10.25;5.53;;;;;;;21.05;65.60;92684.38;4805166;29;20037;-75
2022/07/16 01:29:06;;;;;;;10.43;5.60;;;;;;;21.05;66.14;92695.00;4771317;30;20557;-76
2022/07/16 01:31:32;;;;;;;7.47;5.10;;;;;;;21.02;66.96;92690.41;4788613;30;20088;-75
2022/07/16 01:36:52;;;;;;;7.00;4.95;;;;;;;20.95;66.85;92702.41;4796767;29;20043;-75
2022/07/16 01:39:18;;;;;;;6.72;5.03;;;;;;;20.92;66.47;92694.38;4800637;29;20447;-75
2022/07/16 01:41:52;;;;;;;9.57;5.47;;;;;;;20.91;66.72;92685.59;4772504;30;20066;-75
2022/07/16 01:44:18;;;;;;;8.65;5.60;;;;;;;20.91;67.75;92696.22;4772174;30;20055;-75
2022/07/16 01:46:44;;;;;;;12.10;5.32;;;;;;;20.91;67.66;92701.56;4773190;30;20035;-75
2022/07/16 01:49:09;;;;;;;9.93;5.22;;;;;;;20.90;68.01;92697.38;4770885;29;20054;-75
2022/07/16 01:51:35;;;;;;;6.00;4.65;;;;;;;20.91;67.58;92701.56;4789661;29;20383;-74
2022/07/16 01:54:00;;;;;;;7.60;5.10;;;;;;;20.91;66.81;92704.22;4767065;30;20043;-75
2022/07/16 01:56:26;;;;;;;7.25;4.55;;;;;;;20.92;66.23;92699.69;4781844;29;20425;-75
2022/07/16 01:58:51;;;;;;;6.88;4.70;;;;;;;20.90;66.04;92694.69;4774926;29;20073;-75
2022/07/16 02:01:17;;;;;;;9.95;4.63;;;;;;;20.90;65.52;92697.38;4791229;29;20039;-75
2022/07/16 02:03:42;;;;;;;8.50;4.63;;;;;;;20.90;65.42;92700.03;4788433;30;20051;-75
2022/07/16 02:06:08;;;;;;;8.32;4.35;;;;;;;20.90;65.25;92697.38;4772958;30;20126;-75
2022/07/16 02:08:34;;;;;;;8.95;5.03;;;;;;;20.86;65.31;92693.06;4771893;30;20082;-75
2022/07/16 02:10:59;;;;;;;9.00;4.80;;;;;;;20.83;65.00;92694.53;4765781;29;20034;-75
2022/07/16 02:13:25;;;;;;;7.35;4.45;;;;;;;20.80;64.79;92689.91;4789827;29;20042;-75
2022/07/16 02:15:50;;;;;;;8.77;5.20;;;;;;;20.79;65.03;92691.78;4789319;29;20047;-75
2022/07/16 02:18:16;;;;;;;8.50;4.65;;;;;;;20.78;65.64;92686.81;4785628;30;20046;-75
2022/07/16 02:20:41;;;;;;;8.38;4.97;;;;;;;20.76;66.16;92691.69;4772592;29;20063;-75
2022/07/16 02:23:07;;;;;;;8.68;5.10;;;;;;;20.75;66.08;92687.50;4771559;30;20051;-75
2022/07/16 02:25:33;;;;;;;7.55;4.47;;;;;;;20.74;66.18;92696.63;4788054;30;20624;-75
2022/07/16 02:28:08;;;;;;;9.18;4.90;;;;;;;20.68;66.83;92692.66;4788692;29;20134;-75
2022/07/16 02:30:36;;;;;;;9.80;5.20;;;;;;;20.66;66.89;92686.91;4792392;29;20512;-75
2022/07/16 02:33:02;;;;;;;10.40;5.30;;;;;;;20.65;67.03;92688.81;4791004;29;20457;-75
2022/07/16 02:35:27;;;;;;;8.25;5.47;;;;;;;20.64;67.74;92689.13;4771419;30;20047;-75
2022/07/16 02:37:53;;;;;;;6.90;4.90;;;;;;;20.59;68.40;92696.25;4772636;30;20110;-75
2022/07/16 02:40:18;;;;;;;7.75;5.10;;;;;;;20.56;68.13;92691.63;4787447;30;20048;-75
2022/07/16 02:42:44;;;;;;;10.73;5.00;;;;;;;20.53;67.99;92689.59;4787867;29;20051;-75
2022/07/16 02:45:11;;;;;;;10.15;5.35;;;;;;;20.55;67.81;92695.34;4755892;30;20448;-75
2022/07/16 02:47:37;;;;;;;8.63;5.30;;;;;;;20.57;67.73;92692.41;4788470;29;20047;-75
2022/07/16 02:50:04;;;;;;;9.05;5.22;;;;;;;20.57;67.73;92690.50;4771239;30;20043;-75
2022/07/16 02:52:29;;;;;;;6.55;4.75;;;;;;;20.58;67.56;92700.03;4771445;29;20104;-75
2022/07/16 02:54:55;;;;;;;9.77;5.30;;;;;;;20.58;67.62;92694.72;4771388;30;20055;-75
2022/07/16 02:57:20;;;;;;;8.98;4.93;;;;;;;20.58;67.33;92694.72;4756414;30;20043;-75
2022/07/16 02:59:46;;;;;;;7.90;4.72;;;;;;;20.61;66.96;92692.50;4771787;30;20521;-75
2022/07/16 03:02:11;;;;;;;7.57;4.53;;;;;;;20.64;66.68;92702.44;4771098;30;20564;-75
2022/07/16 03:04:37;;;;;;;7.38;4.70;;;;;;;20.63;66.53;92698.25;4787061;29;20073;-75
2022/07/16 03:07:03;;;;;;;9.90;4.68;;;;;;;20.61;66.28;92698.56;4787013;30;20074;-75
2022/07/16 03:09:29;;;;;;;10.00;4.45;;;;;;;20.61;66.26;92708.44;4787973;29;20447;-75
2022/07/16 03:11:54;;;;;;;7.47;4.30;;;;;;;20.60;65.74;92702.34;4770817;30;20039;-75
2022/07/16 03:14:20;;;;;;;6.82;4.53;;;;;;;20.61;65.86;92703.13;4776382;29;20046;-75
2022/07/16 03:16:46;;;;;;;13.40;4.78;;;;;;;20.61;66.44;92709.22;4788670;29;20122;-75
2022/07/16 03:19:12;;;;;;;7.20;4.57;;;;;;;20.58;66.57;92705.34;4803134;29;20565;-75
2022/07/16 03:21:38;;;;;;;8.48;4.40;;;;;;;20.54;66.63;92707.13;4804806;29;20063;-75
2022/07/16 03:24:03;;;;;;;8.25;4.75;;;;;;;20.51;66.71;92721.13;4786689;29;20055;-75
2022/07/16 03:26:29;;;;;;;9.73;4.70;;;;;;;20.49;66.62;92715.38;4770520;30;20039;-75
2022/07/16 03:28:54;;;;;;;6.57;4.68;;;;;;;20.48;66.70;92713.03;4770686;30;20493;-75
2022/07/16 03:31:20;;;;;;;9.70;4.60;;;;;;;20.47;67.32;92708.84;4787597;29;20127;-75
2022/07/16 03:33:46;;;;;;;10.38;4.70;;;;;;;20.47;67.42;92714.94;4770059;30;20042;-75
2022/07/16 03:36:11;;;;;;;7.60;4.70;;;;;;;20.46;67.89;92724.00;4767784;29;20209;-75
2022/07/16 03:41:21;;;;;;;6.70;4.93;;;;;;;20.42;67.66;92719.72;4803142;29;20099;-75
2022/07/16 03:43:47;;;;;;;8.48;5.10;;;;;;;20.42;66.99;92717.81;4804500;29;20440;-75
2022/07/16 03:46:13;;;;;;;8.70;4.93;;;;;;;20.43;67.20;92719.38;4772082;29;20046;-75
2022/07/16 03:48:42;;;;;;;7.50;4.90;;;;;;;20.43;67.30;92721.28;4804488;29;20176;-75
2022/07/16 03:51:08;;;;;;;10.02;4.90;;;;;;;20.41;67.68;92731.47;4786591;29;20051;-75
2022/07/16 03:53:34;;;;;;;6.50;4.78;;;;;;;20.36;68.59;92727.94;4788079;29;20541;-75
2022/07/16 03:56:01;;;;;;;9.70;4.88;;;;;;;20.35;68.05;92729.06;4799129;29;20046;-75
2022/07/16 03:58:26;;;;;;;6.88;5.10;;;;;;;20.34;68.04;92726.75;4755296;30;20054;-75
2022/07/16 04:00:53;;;;;;;8.10;4.90;;;;;;;20.33;68.46;92725.97;4771155;30;20031;-75
2022/07/16 04:03:19;;;;;;;7.25;4.53;;;;;;;20.32;68.41;92728.97;4770045;30;20075;-75
2022/07/16 04:05:44;;;;;;;7.80;4.88;;;;;;;20.31;68.22;92732.72;4786089;30;20059;-75
2022/07/16 04:08:10;;;;;;;7.10;4.70;;;;;;;20.30;68.40;92736.50;4802140;29;20035;-75
2022/07/16 04:10:35;;;;;;;7.45;4.53;;;;;;;20.30;68.65;92739.94;4803953;29;20043;-75
2022/07/16 04:13:01;;;;;;;9.73;4.95;;;;;;;20.30;68.79;92741.81;4802226;29;20081;-75
2022/07/16 04:15:27;;;;;;;8.63;5.05;;;;;;;20.28;68.97;92744.03;4803995;29;20071;-75
2022/07/16 04:17:53;;;;;;;8.95;5.00;;;;;;;20.29;69.30;92745.59;4791981;29;20047;-75
2022/07/16 04:20:18;;;;;;;13.25;5.15;;;;;;;20.29;68.89;92749.03;4785992;30;20039;-75
2022/07/16 04:22:44;;;;;;;9.20;5.00;;;;;;;20.33;69.04;92751.75;4775051;30;20541;-75
2022/07/16 04:25:10;;;;;;;8.00;4.68;;;;;;;20.33;68.98;92755.22;4767497;30;20044;-75
2022/07/16 04:27:35;;;;;;;7.97;4.68;;;;;;;20.33;69.62;92757.09;4756732;30;20108;-75
2022/07/16 04:30:01;;;;;;;8.95;4.85;;;;;;;20.32;69.97;92753.66;4755367;30;20031;-75
2022/07/16 04:32:26;;;;;;;7.63;4.88;;;;;;;20.32;69.80;92753.66;4784468;30;20052;-75
2022/07/16 04:34:52;;;;;;;7.50;4.55;;;;;;;20.34;69.78;92755.97;4766303;30;20044;-75
2022/07/16 04:37:17;;;;;;;9.43;4.78;;;;;;;20.38;69.95;92756.84;4766480;30;20126;-75
2022/07/16 04:39:43;;;;;;;8.75;4.82;;;;;;;20.42;69.92;92756.94;4750805;30;20047;-75
2022/07/16 04:42:08;;;;;;;9.32;4.80;;;;;;;20.45;69.53;92753.59;4772742;30;20039;-75
2022/07/16 04:44:34;;;;;;;8.02;5.30;;;;;;;20.50;69.91;92758.66;4752592;29;20028;-75
2022/07/16 04:46:59;;;;;;;7.18;4.85;;;;;;;20.51;69.83;92763.66;4750273;30;20510;-75
2022/07/16 04:49:25;;;;;;;8.90;5.32;;;;;;;20.55;69.62;92761.84;4768687;30;20050;-75
2022/07/16 04:51:51;;;;;;;7.68;5.00;;;;;;;20.58;69.45;92758.53;4783214;30;20035;-75
2022/07/16 04:54:16;;;;;;;12.43;5.10;;;;;;;20.65;69.23;92767.78;4781112;30;20081;-75
2022/07/16 04:56:42;;;;;;;7.20;5.05;;;;;;;20.68;69.44;92767.13;4761107;30;20070;-75
2022/07/16 04:59:07;;;;;;;6.88;4.80;;;;;;;20.74;69.01;92771.09;4776450;30;20491;-75
2022/07/16 05:01:33;;;;;;;8.13;4.93;;;;;;;20.79;68.60;92770.81;4774155;29;20039;-75
2022/07/16 05:03:58;;;;;;;8.68;5.15;;;;;;;20.84;68.92;92775.13;4772949;30;20039;-75
2022/07/16 05:06:24;;;;;;;9.15;5.07;;;;;;;20.92;68.53;92766.97;4771140;30;20042;-75
2022/07/16 05:08:49;;;;;;;10.20;4.78;;;;;;;20.99;68.84;92775.13;4755102;30;20050;-75
2022/07/16 05:11:15;;;;;;;7.35;4.97;;;;;;;21.04;69.40;92768.00;4755657;29;20043;-75
2022/07/16 05:13:41;;;;;;;8.75;4.95;;;;;;;21.10;69.57;92774.63;4802950;29;20043;-74
2022/07/16 05:16:06;;;;;;;9.48;4.97;;;;;;;21.16;69.66;92775.88;4775272;29;20048;-75
2022/07/16 05:18:32;;;;;;;8.60;5.22;;;;;;;21.23;69.77;92776.03;4764004;30;20124;-75
2022/07/16 05:20:57;;;;;;;9.70;4.90;;;;;;;21.31;68.93;92775.09;4764085;30;20143;-75
2022/07/16 05:23:23;;;;;;;8.13;4.70;;;;;;;21.41;68.71;92782.59;4771623;29;20062;-75
2022/07/16 05:26:09;;;;;;;7.25;4.60;;;;;;;21.51;68.83;92785.84;4771159;30;20043;-76
2022/07/16 05:28:36;;;;;;;6.80;4.78;;;;;;;21.57;69.02;92790.56;4773352;30;20043;-76
2022/07/16 05:31:01;;;;;;;7.97;4.72;;;;;;;21.68;68.48;92785.44;4770337;30;20044;-77
2022/07/16 05:33:27;;;;;;;7.43;4.90;;;;;;;21.77;68.05;92787.91;4741535;30;20072;-76
2022/07/16 05:35:52;;;;;;;6.82;4.53;;;;;;;21.86;68.08;92795.72;4753941;30;20067;-76
2022/07/16 05:38:18;;;;;;;7.72;4.70;;;;;;;22.03;67.83;92795.31;4753945;30;20048;-76
2022/07/16 05:40:44;;;;;;;7.55;5.03;;;;;;;22.00;70.12;92799.47;4780046;30;20435;-73
2022/07/16 05:43:10;;;;;;;7.65;5.00;;;;;;;22.10;69.40;92789.34;4784258;30;20057;-73
2022/07/16 05:45:36;;;;;;;16.20;4.85;;;;;;;22.14;68.59;92800.88;4757128;30;20612;-72
2022/07/16 05:48:02;;;;;;;7.75;5.22;;;;;;;22.21;69.04;92801.81;4773531;30;20105;-74
2022/07/16 05:50:28;;;;;;;7.95;5.20;;;;;;;22.37;68.28;92803.63;4769165;30;20039;-72
2022/07/16 05:52:54;;;;;;;7.95;4.70;;;;;;;22.49;66.83;92806.13;4770516;30;20047;-72
2022/07/16 05:55:19;;;;;;;10.70;4.90;;;;;;;22.57;65.09;92801.72;4770306;30;20031;-73
2022/07/16 05:57:45;;;;;;;9.48;4.88;;;;;;;23.04;63.28;92809.44;4772745;30;20399;-72
2022/07/16 06:00:11;;;;;;;8.43;4.78;;;;;;;23.64;60.51;92808.06;4788434;30;20116;-73
2022/07/16 06:02:41;;;;;;;8.82;4.53;;;;;;;24.24;59.94;92821.50;4772858;30;20051;-72
2022/07/16 06:05:07;;;;;;;8.57;4.50;;;;;;;24.30;60.12;92817.38;4788084;30;20067;-72
2022/07/16 06:07:32;;;;;;;7.70;5.00;;;;;;;24.26;59.26;92816.56;4778701;30;20481;-72
2022/07/16 06:09:58;;;;;;;9.25;5.13;;;;;;;24.65;57.06;92826.97;4771157;30;20051;-73
2022/07/16 06:12:23;;;;;;;8.57;6.00;;;;;;;24.65;56.04;92821.63;4770140;30;20118;-73
2022/07/16 06:14:49;;;;;;;8.27;5.53;;;;;;;24.96;55.71;92824.22;4754077;30;20116;-73
2022/07/16 06:17:14;;;;;;;12.85;5.40;;;;;;;25.14;55.41;92820.56;4769436;30;20048;-72
2022/07/16 06:19:41;;;;;;;8.98;5.00;;;;;;;25.34;56.30;92821.16;4771009;30;20043;-73
2022/07/16 06:22:08;;;;;;;8.65;5.10;;;;;;;25.80;53.67;92824.53;4793620;29;20433;-72
2022/07/16 06:24:34;;;;;;;7.05;5.53;;;;;;;26.50;50.50;92825.31;4783595;29;20379;-73
2022/07/16 06:26:59;;;;;;;9.80;5.60;;;;;;;26.72;50.12;92821.56;4818390;29;20063;-73
2022/07/16 06:29:25;;;;;;;8.63;5.95;;;;;;;27.23;48.40;92827.84;4774096;29;20141;-73
2022/07/16 06:31:50;;;;;;;8.50;5.93;;;;;;;27.29;47.01;92823.66;4785518;29;20161;-73
2022/07/16 06:34:16;;;;;;;8.95;5.43;;;;;;;27.17;47.51;92832.03;4788631;29;20034;-73
2022/07/16 06:36:41;;;;;;;7.65;5.40;;;;;;;27.26;48.00;92818.25;4771726;29;20051;-73
2022/07/16 06:39:08;;;;;;;6.50;4.60;;;;;;;27.71;47.84;92822.09;4777089;29;20050;-73
2022/07/16 06:41:36;;;;;;;10.93;5.70;;;;;;;27.68;47.13;92819.41;4772545;30;20043;-73
2022/07/16 06:44:06;;;;;;;9.05;6.00;;;;;;;27.46;47.06;92824.03;4771363;30;20051;-74
2022/07/16 06:46:32;;;;;;;7.95;5.15;;;;;;;27.29;48.30;92830.91;4787761;30;20109;-73
2022/07/16 06:48:58;;;;;;;8.55;5.50;;;;;;;27.33;48.67;92821.72;4788037;29;20110;-73
2022/07/16 06:51:24;;;;;;;12.35;6.32;;;;;;;27.09;47.71;92823.22;4788259;29;20479;-73
2022/07/16 06:53:49;;;;;;;9.32;5.00;;;;;;;27.25;48.79;92828.25;4778550;29;20051;-73
2022/07/16 06:56:15;;;;;;;8.20;5.50;;;;;;;27.29;48.44;92820.16;4798706;29;20035;-73
2022/07/16 06:58:40;;;;;;;8.48;5.50;;;;;;;27.44;47.61;92829.03;4756444;29;20055;-73
2022/07/16 07:01:08;;;;;;;8.95;5.10;;;;;;;27.56;48.11;92829.41;4788426;29;20047;-73
2022/07/16 07:03:33;;;;;;;8.10;4.60;;;;;;;27.53;49.78;92827.47;4787042;30;20039;-73
2022/07/16 07:05:59;;;;;;;8.73;4.63;;;;;;;27.23;49.98;92830.53;4755768;29;20100;-73
2022/07/16 07:08:24;;;;;;;9.48;4.50;;;;;;;26.97;50.17;92831.63;4804081;29;20080;-73
2022/07/16 07:10:50;;;;;;;7.90;5.70;;;;;;;26.89;48.99;92827.41;4787742;29;20494;-73
2022/07/16 07:13:16;;;;;;;7.93;5.07;;;;;;;26.92;49.81;92832.75;4771305;30;20554;-73
2022/07/16 07:15:42;;;;;;;13.30;5.13;;;;;;;26.99;49.97;92835.44;4770547;30;20047;-72
2022/07/16 07:18:08;;;;;;;7.55;5.10;;;;;;;26.88;50.12;92833.91;4790164;29;20030;-72
2022/07/16 07:20:34;;;;;;;14.15;5.80;;;;;;;26.62;50.84;92827.69;4801223;29;20506;-72
2022/07/16 07:22:59;;;;;;;8.57;5.35;;;;;;;26.11;52.78;92828.59;4794174;29;20053;-73
2022/07/16 07:25:25;;;;;;;8.18;5.07;;;;;;;25.93;53.56;92831.16;4802392;29;21408;-72
2022/07/16 07:27:52;;;;;;;8.80;5.50;;;;;;;25.79;53.35;92831.81;4822896;29;20122;-72
2022/07/16 07:30:17;;;;;;;8.95;5.20;;;;;;;25.70;54.52;92836.75;4812371;29;20039;-73
2022/07/16 07:32:43;;;;;;;7.88;5.38;;;;;;;25.62;55.12;92840.50;4773060;29;20043;-72
2022/07/16 07:35:09;;;;;;;11.23;5.43;;;;;;;25.32;55.50;92838.75;4773343;29;20330;-71
2022/07/16 07:37:34;;;;;;;7.13;4.88;;;;;;;25.21;56.24;92840.56;4804622;29;20175;-77
2022/07/16 07:40:02;;;;;;;8.10;5.00;;;;;;;25.30;55.53;92832.97;4797374;29;20038;-76
2022/07/16 07:42:28;;;;;;;6.75;4.50;;;;;;;25.46;52.90;92833.50;4770233;29;20112;-75
2022/07/16 07:44:54;;;;;;;11.68;5.03;;;;;;;25.66;54.84;92830.59;4786185;30;20039;-75
2022/07/16 07:47:19;;;;;;;8.02;5.20;;;;;;;25.76;54.81;92825.31;4786873;29;20051;-76
2022/07/16 07:49:45;;;;;;;8.63;4.70;;;;;;;25.83;52.45;92829.94;4793104;29;20053;-75
2022/07/16 07:52:12;;;;;;;7.75;4.43;;;;;;;25.79;51.95;92831.81;4780774;30;20035;-76
2022/07/16 07:54:37;;;;;;;7.05;4.75;;;;;;;25.62;52.49;92822.50;4776107;29;20483;-76
2022/07/16 07:57:03;;;;;;;7.50;4.07;;;;;;;25.58;52.77;92826.31;4770818;29;20118;-80
2022/07/16 07:59:29;;;;;;;6.18;4.35;;;;;;;25.37;52.28;92835.72;4801573;29;20239;-77
2022/07/16 08:01:54;;;;;;;5.82;4.18;;;;;;;25.49;52.42;92838.13;4802666;29;20498;-77
2022/07/16 08:04:20;;;;;;;9.48;4.50;;;;;;;25.50;52.26;92833.53;4785014;29;20066;-77
2022/07/16 08:06:45;;;;;;;9.50;4.25;;;;;;;25.68;52.39;92830.97;4770939;30;20043;-77
2022/07/16 08:09:11;;;;;;;6.70;4.35;;;;;;;25.80;49.82;92837.94;4786451;29;20506;-77
2022/07/16 08:11:36;;;;;;;7.93;4.20;;;;;;;25.83;50.30;92831.84;4770928;30;20043;-77
2022/07/16 08:14:02;;;;;;;7.80;4.68;;;;;;;25.71;51.01;92830.22;4774664;29;20138;-76
2022/07/16 08:16:28;;;;;;;9.55;4.57;;;;;;;25.40;51.61;92840.34;4801282;29;20107;-76
2022/07/16 08:18:53;;;;;;;7.05;4.22;;;;;;;25.62;52.25;92824.41;4806048;29;20043;-77
2022/07/16 08:21:19;;;;;;;7.88;4.20;;;;;;;25.91;51.37;92828.09;4797871;29;20059;-83
2022/07/16 08:26:29;;;;;;;7.80;4.30;;;;;;;26.08;50.00;92832.03;4788395;29;20052;-78
2022/07/16 08:28:54;;;;;;;6.68;4.50;;;;;;;26.22;48.62;92834.78;4794473;29;20130;-78
2022/07/16 08:31:20;;;;;;;5.55;4.53;;;;;;;26.04;48.33;92829.31;4789692;29;20051;-78
2022/07/16 08:33:45;;;;;;;8.18;4.60;;;;;;;25.76;48.95;92843.31;4792173;29;20043;-77
2022/07/16 08:36:11;;;;;;;6.93;4.70;;;;;;;25.75;49.80;92833.72;4779066;29;20038;-80
2022/07/16 08:38:36;;;;;;;8.30;4.60;;;;;;;25.72;49.26;92829.88;4804388;29;20046;-80
2022/07/16 08:41:02;;;;;;;8.57;4.55;;;;;;;25.77;50.33;92837.56;4795669;29;20502;-80
2022/07/16 08:43:30;;;;;;;6.43;4.40;;;;;;;25.94;51.42;92822.00;4805688;29;20050;-81
2022/07/16 08:45:56;;;;;;;8.13;4.38;;;;;;;26.05;49.16;92828.19;4780057;29;20691;-80
2022/07/16 08:48:23;;;;;;;9.52;4.60;;;;;;;25.91;49.30;92826.16;4785108;29;20039;-80
2022/07/16 08:50:49;;;;;;;7.50;4.60;;;;;;;25.88;49.66;92826.16;4799424;29;20035;-78
2022/07/16 08:53:19;;;;;;;7.03;4.60;;;;;;;26.21;49.75;92835.16;4799728;29;20096;-78
2022/07/16 08:55:47;;;;;;;6.65;4.60;;;;;;;26.42;49.64;92834.50;4797097;29;20070;-78
2022/07/16 08:58:12;;;;;;;6.82;4.90;;;;;;;25.68;51.24;92831.75;4794411;29;20066;-77
2022/07/16 09:00:39;;;;;;;8.25;5.50;;;;;;;25.37;49.51;92832.28;4778631;29;20066;-77
2022/07/16 09:03:05;;;;;;;8.05;5.10;;;;;;;25.73;52.42;92828.72;4781359;29;20046;-79
2022/07/16 09:05:31;;;;;;;7.88;4.70;;;;;;;26.14;50.47;92825.94;4796089;29;20030;-77
2022/07/16 09:07:57;;;;;;;7.50;4.43;;;;;;;26.28;49.30;92822.56;4779285;29;20031;-78
2022/07/16 09:10:33;;;;;;;6.90;4.65;;;;;;;26.29;48.86;92826.00;4815709;29;20053;-78
2022/07/16 09:12:59;;;;;;;6.40;4.80;;;;;;;26.51;49.39;92816.13;4786573;29;20137;-78
2022/07/16 09:15:41;;;;;;;6.65;4.60;;;;;;;26.78;50.00;92825.44;4790569;29;20092;-78
2022/07/16 09:18:21;;;;;;;12.00;5.03;;;;;;;26.52;48.08;92814.97;4799164;29;20047;-78
2022/07/16 09:20:55;;;;;;;7.13;4.35;;;;;;;26.56;49.39;92821.16;4796026;29;20085;-79
2022/07/16 09:23:26;;;;;;;6.88;4.07;;;;;;;26.70;50.00;92815.81;4800428;29;20034;-81
2022/07/16 09:25:54;;;;;;;6.50;4.80;;;;;;;26.94;49.12;92816.28;4793225;29;20092;-82
2022/07/16 09:28:21;;;;;;;6.43;4.25;;;;;;;26.69;48.61;92822.34;4791555;29;20421;-80
2022/07/16 09:30:46;;;;;;;6.55;4.65;;;;;;;26.93;47.47;92825.47;4801549;29;20379;-80
2022/07/16 09:33:20;;;;;;;7.57;4.68;;;;;;;26.87;48.63;92827.00;4793135;29;20046;-79
2022/07/16 09:35:48;;;;;;;6.00;4.60;;;;;;;26.99;49.47;92815.88;4779588;29;20073;-81
2022/07/16 09:38:14;;;;;;;9.43;4.68;;;;;;;27.14;48.75;92825.50;4801360;29;20039;-78
2022/07/16 09:40:46;;;;;;;7.82;4.93;;;;;;;27.10;46.88;92830.09;4796746;29;20552;-81
2022/07/16 09:43:14;;;;;;;7.32;4.80;;;;;;;27.10;47.31;92822.03;4798760;29;20099;-80
2022/07/16 09:45:45;;;;;;;5.97;4.70;;;;;;;27.18;47.22;92820.91;4794708;29;20035;-81
2022/07/16 09:48:29;;;;;;;5.90;4.30;;;;;;;27.43;46.08;92817.50;4778591;30;20043;-77
2022/07/16 09:50:57;;;;;;;9.25;4.60;;;;;;;27.36;48.01;92820.97;4779878;29;20323;-78
2022/07/16 09:53:25;;;;;;;9.55;4.82;;;;;;;27.48;46.68;92817.13;4803489;29;20118;-81
2022/07/16 09:55:59;;;;;;;6.90;4.78;;;;;;;27.58;47.83;92821.72;4778146;29;20544;-82
2022/07/16 09:58:25;;;;;;;8.93;4.97;;;;;;;27.54;45.63;92820.97;4800064;29;20543;-84
2022/07/16 10:00:51;;;;;;;6.97;4.88;;;;;;;27.40;46.73;92816.34;4792442;29;20031;-76
2022/07/16 10:03:17;;;;;;;10.95;5.13;;;;;;;27.45;46.91;92817.91;4776925;29;20486;-81
2022/07/16 10:05:42;;;;;;;6.38;5.25;;;;;;;27.71;46.46;92818.63;4797223;29;20043;-81
2022/07/16 10:08:08;;;;;;;11.70;4.85;;;;;;;27.88;48.39;92815.19;4775041;30;20039;-78
2022/07/16 10:10:33;;;;;;;8.43;4.90;;;;;;;28.11;46.46;92811.31;4773339;29;20050;-78
2022/07/16 10:12:59;;;;;;;11.00;4.65;;;;;;;28.17;45.36;92812.44;4783794;30;20346;-81
2022/07/16 10:15:25;;;;;;;9.63;4.65;;;;;;;28.07;46.10;92821.31;4791645;29;20554;-77
2022/07/16 10:17:51;;;;;;;8.57;5.15;;;;;;;28.06;45.97;92811.72;4790336;30;20126;-76
2022/07/16 10:20:19;;;;;;;7.28;4.78;;;;;;;27.90;44.26;92814.78;4774230;30;20047;-78
2022/07/16 10:22:47;;;;;;;5.80;4.60;;;;;;;27.70;47.13;92814.44;4795214;29;20035;-78
2022/07/16 10:25:15;;;;;;;7.68;4.90;;;;;;;27.97;45.96;92810.19;4808526;29;20050;-79
2022/07/16 10:27:42;;;;;;;8.55;5.20;;;;;;;28.18;46.87;92809.34;4790544;29;20047;-78
2022/07/16 10:30:22;;;;;;;8.88;5.13;;;;;;;28.13;45.19;92807.06;4790276;29;20046;-78
2022/07/16 10:33:03;;;;;;;10.73;4.82;;;;;;;28.18;45.83;92803.19;4792763;29;20446;-81
2022/07/16 10:35:33;;;;;;;11.88;4.70;;;;;;;28.34;46.03;92806.22;4797405;29;20043;-79
2022/07/16 10:38:07;;;;;;;8.02;4.78;;;;;;;28.48;45.05;92804.66;4787633;29;20038;-78
2022/07/16 10:40:36;;;;;;;7.93;5.13;;;;;;;27.95;44.90;92811.72;4793534;29;20051;-79
2022/07/16 10:43:15;;;;;;;7.70;5.28;;;;;;;27.76;45.81;92802.91;4783489;29;20031;-77
2022/07/16 10:46:01;;;;;;;7.60;4.50;;;;;;;28.03;45.17;92792.50;4775994;29;20464;-77
2022/07/16 10:48:29;;;;;;;7.40;4.70;;;;;;;27.68;45.82;92814.81;4793192;29;20042;-77
2022/07/16 10:51:16;;;;;;;7.97;4.78;;;;;;;27.81;44.00;92801.72;4793257;29;20039;-77
2022/07/16 10:53:57;;;;;;;7.82;4.97;;;;;;;27.65;45.59;92798.66;4785373;29;20046;-76
2022/07/16 10:56:32;;;;;;;7.90;4.80;;;;;;;27.52;46.05;92801.00;4805115;29;20039;-77
2022/07/16 10:58:58;;;;;;;6.55;4.47;;;;;;;27.26;46.68;92789.47;4757345;30;20051;-77
2022/07/16 11:01:24;;;;;;;6.63;4.60;;;;;;;27.60;46.24;92795.19;4787675;29;20046;-76
2022/07/16 11:03:51;;;;;;;8.40;4.90;;;;;;;27.56;44.90;92802.53;4789488;29;20402;-77
2022/07/16 11:06:20;;;;;;;7.68;4.80;;;;;;;27.86;46.87;92808.66;4789053;29;20034;-76
2022/07/16 11:08:46;;;;;;;6.55;4.63;;;;;;;28.06;45.18;92796.31;4781615;29;20472;-77
2022/07/16 11:11:13;;;;;;;7.05;4.57;;;;;;;28.02;45.31;92795.56;4795698;29;20031;-74
2022/07/16 11:13:39;;;;;;;9.75;4.90;;;;;;;28.26;45.28;92804.72;4792487;29;20038;-76
2022/07/16 11:16:09;;;;;;;6.93;4.75;;;;;;;28.29;45.42;92798.56;4793599;29;20052;-76
2022/07/16 11:18:36;;;;;;;6.22;4.75;;;;;;;28.44;44.08;92801.97;4792913;29;20465;-77
2022/07/16 11:21:05;;;;;;;7.97;4.43;;;;;;;28.18;45.29;92798.59;4793683;29;20087;-76
2022/07/16 11:23:52;;;;;;;8.95;4.90;;;;;;;28.44;45.69;92794.66;4778034;29;20541;-75
2022/07/16 11:26:21;;;;;;;7.50;5.00;;;;;;;28.62;45.21;92791.16;4792553;29;20139;-76
2022/07/16 11:29:00;;;;;;;8.82;4.53;;;;;;;28.72;44.25;92790.31;4777203;29;20046;-76
2022/07/16 11:31:29;;;;;;;7.70;4.60;;;;;;;28.67;43.14;92796.13;4773650;29;20484;-76
2022/07/16 11:34:03;;;;;;;8.85;4.40;;;;;;;28.43;43.01;92781.56;4788319;29;20122;-76
2022/07/16 11:36:33;;;;;;;8.63;4.35;;;;;;;28.24;45.08;92782.81;4771635;29;20490;-76
2022/07/16 11:39:03;;;;;;;7.57;4.22;;;;;;;28.25;44.06;92781.66;4797048;29;20037;-76
2022/07/16 11:41:31;;;;;;;6.30;4.70;;;;;;;28.43;44.23;92782.34;4758583;29;20034;-77
2022/07/16 11:43:57;;;;;;;7.70;5.10;;;;;;;28.62;45.00;92785.75;4786951;29;20038;-76